sensor_id;sensor_type;location;lat;lon;timestamp;temperature;humidity
14057;DHT22;7103;54.300;10.180;2023-05-07T00:01:35;8.80;99.90
14057;DHT22;7103;54.300;10.180;2023-05-07T00:04:02;8.80;99.90
14057;DHT22;7103;54.300;10.180;2023-05-07T00:06:30;8.80;99.90
14057;DHT22;7103;54.300;10.180;2023-05-07T00:08:58;8.80;99.90
14057;DHT22;7103;54.300;10.180;2023-05-07T00:11:26;8.80;99.90
14057;DHT22;7103;54.300;10.180;2023-05-07T00:13:53;8.80;99.90
14057;DHT22;7103;54.300;10.180;2023-05-07T00:16:20;8.70;99.90
14057;DHT22;7103;54.300;10.180;2023-05-07T00:18:47;8.70;99.90
14057;DHT22;7103;54.300;10.180;2023-05-07T00:21:14;8.70;99.90
14057;DHT22;7103;54.300;10.180;2023-05-07T00:23:42;8.80;99.90
14057;DHT22;7103;54.300;10.180;2023-05-07T00:26:08;9.00;99.90
14057;DHT22;7103;54.300;10.180;2023-05-07T00:28:35;8.90;99.90
14057;DHT22;7103;54.300;10.180;2023-05-07T00:31:02;8.80;99.90
14057;DHT22;7103;54.300;10.180;2023-05-07T00:33:29;9.00;99.90
14057;DHT22;7103;54.300;10.180;2023-05-07T00:35:56;8.90;99.90
14057;DHT22;7103;54.300;10.180;2023-05-07T00:38:23;8.90;99.90
14057;DHT22;7103;54.300;10.180;2023-05-07T00:40:50;8.80;99.90
14057;DHT22;7103;54.300;10.180;2023-05-07T00:43:18;8.90;99.90
14057;DHT22;7103;54.300;10.180;2023-05-07T00:45:45;8.90;99.90
14057;DHT22;7103;54.300;10.180;2023-05-07T00:48:12;8.90;99.90
14057;DHT22;7103;54.300;10.180;2023-05-07T00:50:41;8.90;99.90
14057;DHT22;7103;54.300;10.180;2023-05-07T00:53:08;8.90;99.90
14057;DHT22;7103;54.300;10.180;2023-05-07T00:55:35;9.00;99.90
14057;DHT22;7103;54.300;10.180;2023-05-07T00:58:03;8.90;99.90
14057;DHT22;7103;54.300;10.180;2023-05-07T01:00:30;9.00;99.90
14057;DHT22;7103;54.300;10.180;2023-05-07T01:02:58;9.00;99.90
14057;DHT22;7103;54.300;10.180;2023-05-07T01:05:26;9.00;99.90
14057;DHT22;7103;54.300;10.180;2023-05-07T01:07:55;9.00;99.90
14057;DHT22;7103;54.300;10.180;2023-05-07T01:10:23;9.00;99.90
14057;DHT22;7103;54.300;10.180;2023-05-07T01:12:51;9.00;99.90
14057;DHT22;7103;54.300;10.180;2023-05-07T01:15:18;9.00;99.90
14057;DHT22;7103;54.300;10.180;2023-05-07T01:17:45;9.00;99.90
14057;DHT22;7103;54.300;10.180;2023-05-07T01:20:12;9.00;99.90
14057;DHT22;7103;54.300;10.180;2023-05-07T01:22:41;9.00;99.90
14057;DHT22;7103;54.300;10.180;2023-05-07T01:25:09;9.10;99.90
14057;DHT22;7103;54.300;10.180;2023-05-07T01:27:36;9.00;99.90
14057;DHT22;7103;54.300;10.180;2023-05-07T01:30:04;9.00;99.90
14057;DHT22;7103;54.300;10.180;2023-05-07T01:35:12;9.00;99.90
14057;DHT22;7103;54.300;10.180;2023-05-07T01:37:40;9.00;99.90
14057;DHT22;7103;54.300;10.180;2023-05-07T01:40:08;9.00;99.90
14057;DHT22;7103;54.300;10.180;2023-05-07T01:42:36;9.00;99.90
14057;DHT22;7103;54.300;10.180;2023-05-07T01:45:03;9.10;99.90
14057;DHT22;7103;54.300;10.180;2023-05-07T01:47:31;9.10;99.90
14057;DHT22;7103;54.300;10.180;2023-05-07T01:49:58;9.10;99.90
14057;DHT22;7103;54.300;10.180;2023-05-07T01:52:27;9.10;99.90
14057;DHT22;7103;54.300;10.180;2023-05-07T01:58:54;9.20;99.90
14057;DHT22;7103;54.300;10.180;2023-05-07T02:01:21;9.10;99.90
14057;DHT22;7103;54.300;10.180;2023-05-07T02:03:48;9.10;99.90
14057;DHT22;7103;54.300;10.180;2023-05-07T02:06:15;9.10;99.90
14057;DHT22;7103;54.300;10.180;2023-05-07T02:08:42;9.10;99.90
14057;DHT22;7103;54.300;10.180;2023-05-07T02:11:09;9.10;99.90
14057;DHT22;7103;54.300;10.180;2023-05-07T02:13:36;9.10;99.90
14057;DHT22;7103;54.300;10.180;2023-05-07T02:16:03;9.20;99.90
14057;DHT22;7103;54.300;10.180;2023-05-07T02:18:31;9.10;99.90
14057;DHT22;7103;54.300;10.180;2023-05-07T02:20:58;9.00;99.90
14057;DHT22;7103;54.300;10.180;2023-05-07T02:23:25;9.10;99.90
14057;DHT22;7103;54.300;10.180;2023-05-07T02:25:52;9.10;99.90
14057;DHT22;7103;54.300;10.180;2023-05-07T02:28:19;9.10;99.90
14057;DHT22;7103;54.300;10.180;2023-05-07T02:30:46;9.00;99.90
14057;DHT22;7103;54.300;10.180;2023-05-07T02:33:12;9.00;99.90
14057;DHT22;7103;54.300;10.180;2023-05-07T02:35:40;9.00;99.90
14057;DHT22;7103;54.300;10.180;2023-05-07T02:38:07;9.10;99.90
14057;DHT22;7103;54.300;10.180;2023-05-07T02:40:37;9.10;99.90
14057;DHT22;7103;54.300;10.180;2023-05-07T02:43:07;9.10;99.90
14057;DHT22;7103;54.300;10.180;2023-05-07T02:45:34;9.10;99.90
14057;DHT22;7103;54.300;10.180;2023-05-07T02:48:00;9.10;99.90
14057;DHT22;7103;54.300;10.180;2023-05-07T02:50:27;9.10;99.90
14057;DHT22;7103;54.300;10.180;2023-05-07T02:52:54;9.10;99.90
14057;DHT22;7103;54.300;10.180;2023-05-07T02:55:21;9.20;98.10
14057;DHT22;7103;54.300;10.180;2023-05-07T02:57:48;9.10;93.20
14057;DHT22;7103;54.300;10.180;2023-05-07T03:00:17;9.20;94.40
14057;DHT22;7103;54.300;10.180;2023-05-07T03:02:45;9.20;90.60
14057;DHT22;7103;54.300;10.180;2023-05-07T03:05:12;9.20;78.60
14057;DHT22;7103;54.300;10.180;2023-05-07T03:07:40;9.30;81.20
14057;DHT22;7103;54.300;10.180;2023-05-07T03:10:10;9.20;78.60
14057;DHT22;7103;54.300;10.180;2023-05-07T03:12:38;9.10;76.40
14057;DHT22;7103;54.300;10.180;2023-05-07T03:15:05;9.10;78.50
14057;DHT22;7103;54.300;10.180;2023-05-07T03:17:33;9.10;78.40
14057;DHT22;7103;54.300;10.180;2023-05-07T03:19:59;9.20;78.60
14057;DHT22;7103;54.300;10.180;2023-05-07T03:22:26;9.10;80.50
14057;DHT22;7103;54.300;10.180;2023-05-07T03:24:53;9.10;89.20
14057;DHT22;7103;54.300;10.180;2023-05-07T03:27:20;9.10;78.50
14057;DHT22;7103;54.300;10.180;2023-05-07T03:29:47;9.10;78.50
14057;DHT22;7103;54.300;10.180;2023-05-07T03:32:14;9.10;78.50
14057;DHT22;7103;54.300;10.180;2023-05-07T03:34:41;9.20;73.50
14057;DHT22;7103;54.300;10.180;2023-05-07T03:37:08;9.10;78.00
14057;DHT22;7103;54.300;10.180;2023-05-07T03:39:35;9.10;78.50
14057;DHT22;7103;54.300;10.180;2023-05-07T03:42:02;9.00;69.50
14057;DHT22;7103;54.300;10.180;2023-05-07T03:44:29;9.10;78.50
14057;DHT22;7103;54.300;10.180;2023-05-07T03:46:56;9.10;78.50
14057;DHT22;7103;54.300;10.180;2023-05-07T03:49:23;9.10;65.60
14057;DHT22;7103;54.300;10.180;2023-05-07T03:51:50;9.00;73.40
14057;DHT22;7103;54.300;10.180;2023-05-07T03:54:17;9.10;78.40
14057;DHT22;7103;54.300;10.180;2023-05-07T03:56:44;9.30;62.40
14057;DHT22;7103;54.300;10.180;2023-05-07T03:59:11;9.20;37.30
14057;DHT22;7103;54.300;10.180;2023-05-07T04:01:38;9.20;35.30
14057;DHT22;7103;54.300;10.180;2023-05-07T04:04:05;9.20;36.90
14057;DHT22;7103;54.300;10.180;2023-05-07T04:06:32;9.20;32.70
14057;DHT22;7103;54.300;10.180;2023-05-07T04:09:00;9.20;39.20
14057;DHT22;7103;54.300;10.180;2023-05-07T04:11:27;9.20;40.00
14057;DHT22;7103;54.300;10.180;2023-05-07T04:13:54;9.20;34.90
14057;DHT22;7103;54.300;10.180;2023-05-07T04:16:20;9.20;29.60
14057;DHT22;7103;54.300;10.180;2023-05-07T04:18:47;9.20;38.60
14057;DHT22;7103;54.300;10.180;2023-05-07T04:21:16;9.30;25.60
14057;DHT22;7103;54.300;10.180;2023-05-07T04:23:43;9.30;21.40
14057;DHT22;7103;54.300;10.180;2023-05-07T04:26:10;9.40;9.40
14057;DHT22;7103;54.300;10.180;2023-05-07T04:28:39;9.40;4.30
14057;DHT22;7103;54.300;10.180;2023-05-07T04:31:07;9.40;1.00
14057;DHT22;7103;54.300;10.180;2023-05-07T04:33:34;9.40;1.00
14057;DHT22;7103;54.300;10.180;2023-05-07T04:36:02;9.20;4.70
14057;DHT22;7103;54.300;10.180;2023-05-07T04:38:31;9.20;16.20
14057;DHT22;7103;54.300;10.180;2023-05-07T04:41:06;9.20;21.40
14057;DHT22;7103;54.300;10.180;2023-05-07T04:43:33;9.20;21.40
14057;DHT22;7103;54.300;10.180;2023-05-07T04:46:00;9.20;21.40
14057;DHT22;7103;54.300;10.180;2023-05-07T04:48:27;9.20;22.90
14057;DHT22;7103;54.300;10.180;2023-05-07T04:50:55;9.30;34.90
14057;DHT22;7103;54.300;10.180;2023-05-07T04:53:22;9.30;40.30
14057;DHT22;7103;54.300;10.180;2023-05-07T04:55:55;9.40;32.70
14057;DHT22;7103;54.300;10.180;2023-05-07T04:58:23;9.40;21.50
14057;DHT22;7103;54.300;10.180;2023-05-07T05:00:50;9.40;21.50
14057;DHT22;7103;54.300;10.180;2023-05-07T05:03:17;9.30;21.60
14057;DHT22;7103;54.300;10.180;2023-05-07T05:05:44;9.40;21.70
14057;DHT22;7103;54.300;10.180;2023-05-07T05:08:11;9.50;21.60
14057;DHT22;7103;54.300;10.180;2023-05-07T05:10:38;9.40;11.70
14057;DHT22;7103;54.300;10.180;2023-05-07T05:13:05;9.50;16.60
14057;DHT22;7103;54.300;10.180;2023-05-07T05:15:32;9.50;7.70
14057;DHT22;7103;54.300;10.180;2023-05-07T05:17:59;9.50;3.90
14057;DHT22;7103;54.300;10.180;2023-05-07T05:20:26;9.50;5.50
14057;DHT22;7103;54.300;10.180;2023-05-07T05:22:53;9.50;1.00
14057;DHT22;7103;54.300;10.180;2023-05-07T05:25:20;9.60;1.00
14057;DHT22;7103;54.300;10.180;2023-05-07T05:27:47;9.50;1.00
14057;DHT22;7103;54.300;10.180;2023-05-07T05:30:14;9.50;3.10
14057;DHT22;7103;54.300;10.180;2023-05-07T05:32:41;9.50;1.00
14057;DHT22;7103;54.300;10.180;2023-05-07T05:35:08;9.50;1.00
14057;DHT22;7103;54.300;10.180;2023-05-07T05:37:35;9.50;1.00
14057;DHT22;7103;54.300;10.180;2023-05-07T05:40:02;9.60;1.70
14057;DHT22;7103;54.300;10.180;2023-05-07T05:42:29;9.60;1.00
14057;DHT22;7103;54.300;10.180;2023-05-07T05:44:56;9.60;1.00
14057;DHT22;7103;54.300;10.180;2023-05-07T05:47:22;9.60;1.00
14057;DHT22;7103;54.300;10.180;2023-05-07T05:49:50;9.70;1.00
14057;DHT22;7103;54.300;10.180;2023-05-07T05:52:16;9.80;1.00
14057;DHT22;7103;54.300;10.180;2023-05-07T05:54:44;9.80;1.00
14057;DHT22;7103;54.300;10.180;2023-05-07T05:57:11;9.80;1.00
14057;DHT22;7103;54.300;10.180;2023-05-07T05:59:38;9.80;1.00
14057;DHT22;7103;54.300;10.180;2023-05-07T06:02:05;9.90;1.00
14057;DHT22;7103;54.300;10.180;2023-05-07T06:04:32;9.90;1.00
14057;DHT22;7103;54.300;10.180;2023-05-07T06:06:59;9.90;1.00
14057;DHT22;7103;54.300;10.180;2023-05-07T06:09:26;9.90;1.00
14057;DHT22;7103;54.300;10.180;2023-05-07T06:11:53;9.90;1.00
14057;DHT22;7103;54.300;10.180;2023-05-07T06:14:20;10.00;1.00
14057;DHT22;7103;54.300;10.180;2023-05-07T06:16:47;9.90;1.00
14057;DHT22;7103;54.300;10.180;2023-05-07T06:19:14;10.00;1.00
14057;DHT22;7103;54.300;10.180;2023-05-07T06:21:41;10.00;1.00
14057;DHT22;7103;54.300;10.180;2023-05-07T06:24:08;10.00;1.00
14057;DHT22;7103;54.300;10.180;2023-05-07T06:26:35;10.10;1.00
14057;DHT22;7103;54.300;10.180;2023-05-07T06:29:03;10.20;1.00
14057;DHT22;7103;54.300;10.180;2023-05-07T06:31:30;10.20;1.00
14057;DHT22;7103;54.300;10.180;2023-05-07T06:34:00;10.10;1.00
14057;DHT22;7103;54.300;10.180;2023-05-07T06:36:28;10.20;1.00
14057;DHT22;7103;54.300;10.180;2023-05-07T06:38:56;10.30;1.00
14057;DHT22;7103;54.300;10.180;2023-05-07T06:41:23;10.30;1.00
14057;DHT22;7103;54.300;10.180;2023-05-07T06:43:50;10.30;1.00
14057;DHT22;7103;54.300;10.180;2023-05-07T06:46:17;10.40;1.00
14057;DHT22;7103;54.300;10.180;2023-05-07T06:48:44;10.40;1.00
14057;DHT22;7103;54.300;10.180;2023-05-07T06:51:11;10.40;1.00
14057;DHT22;7103;54.300;10.180;2023-05-07T06:53:37;10.50;1.00
14057;DHT22;7103;54.300;10.180;2023-05-07T06:56:05;10.50;1.00
14057;DHT22;7103;54.300;10.180;2023-05-07T06:58:32;10.60;1.00
14057;DHT22;7103;54.300;10.180;2023-05-07T07:00:59;10.60;1.00
14057;DHT22;7103;54.300;10.180;2023-05-07T07:03:26;10.50;1.00
14057;DHT22;7103;54.300;10.180;2023-05-07T07:05:53;10.70;1.00
14057;DHT22;7103;54.300;10.180;2023-05-07T07:08:21;11.00;1.00
14057;DHT22;7103;54.300;10.180;2023-05-07T07:10:48;11.10;1.00
14057;DHT22;7103;54.300;10.180;2023-05-07T07:13:15;11.20;1.00
14057;DHT22;7103;54.300;10.180;2023-05-07T07:15:43;11.30;1.00
14057;DHT22;7103;54.300;10.180;2023-05-07T07:18:10;11.50;1.00
14057;DHT22;7103;54.300;10.180;2023-05-07T07:20:37;11.70;1.00
14057;DHT22;7103;54.300;10.180;2023-05-07T07:23:04;11.80;1.00
14057;DHT22;7103;54.300;10.180;2023-05-07T07:25:32;11.80;1.00
14057;DHT22;7103;54.300;10.180;2023-05-07T07:27:58;11.70;1.00
14057;DHT22;7103;54.300;10.180;2023-05-07T07:30:25;11.80;1.00
14057;DHT22;7103;54.300;10.180;2023-05-07T07:32:53;11.80;1.00
14057;DHT22;7103;54.300;10.180;2023-05-07T07:35:20;11.70;1.00
14057;DHT22;7103;54.300;10.180;2023-05-07T07:37:48;11.70;1.00
14057;DHT22;7103;54.300;10.180;2023-05-07T07:40:16;11.70;1.00
14057;DHT22;7103;54.300;10.180;2023-05-07T07:42:43;11.80;1.00
14057;DHT22;7103;54.300;10.180;2023-05-07T07:45:11;11.90;1.00
14057;DHT22;7103;54.300;10.180;2023-05-07T07:47:39;12.00;1.00
14057;DHT22;7103;54.300;10.180;2023-05-07T07:50:07;12.50;1.00
14057;DHT22;7103;54.300;10.180;2023-05-07T07:52:35;12.70;1.00
14057;DHT22;7103;54.300;10.180;2023-05-07T07:55:02;12.80;1.00
14057;DHT22;7103;54.300;10.180;2023-05-07T07:57:30;12.80;1.00
14057;DHT22;7103;54.300;10.180;2023-05-07T07:59:57;12.80;1.00
14057;DHT22;7103;54.300;10.180;2023-05-07T08:02:23;12.80;1.00
14057;DHT22;7103;54.300;10.180;2023-05-07T08:04:51;12.70;1.00
14057;DHT22;7103;54.300;10.180;2023-05-07T08:07:18;12.70;1.00
14057;DHT22;7103;54.300;10.180;2023-05-07T08:09:47;12.80;1.00
14057;DHT22;7103;54.300;10.180;2023-05-07T08:12:14;12.80;1.00
14057;DHT22;7103;54.300;10.180;2023-05-07T08:14:41;12.80;1.00
14057;DHT22;7103;54.300;10.180;2023-05-07T08:17:08;12.80;1.00
14057;DHT22;7103;54.300;10.180;2023-05-07T08:19:36;13.10;1.00
14057;DHT22;7103;54.300;10.180;2023-05-07T08:22:03;13.40;1.00
14057;DHT22;7103;54.300;10.180;2023-05-07T08:24:32;13.30;1.00
14057;DHT22;7103;54.300;10.180;2023-05-07T08:26:59;13.00;1.00
14057;DHT22;7103;54.300;10.180;2023-05-07T08:29:26;13.00;1.00
14057;DHT22;7103;54.300;10.180;2023-05-07T08:31:52;12.80;1.00
14057;DHT22;7103;54.300;10.180;2023-05-07T08:34:20;13.20;1.00
14057;DHT22;7103;54.300;10.180;2023-05-07T08:36:47;13.10;1.00
14057;DHT22;7103;54.300;10.180;2023-05-07T08:39:15;13.10;1.00
14057;DHT22;7103;54.300;10.180;2023-05-07T08:41:48;13.30;1.00
14057;DHT22;7103;54.300;10.180;2023-05-07T08:44:19;13.70;1.00
14057;DHT22;7103;54.300;10.180;2023-05-07T08:46:50;13.70;1.00
14057;DHT22;7103;54.300;10.180;2023-05-07T08:49:18;13.90;1.00
14057;DHT22;7103;54.300;10.180;2023-05-07T08:51:45;13.80;1.00
14057;DHT22;7103;54.300;10.180;2023-05-07T08:54:16;13.90;1.00
14057;DHT22;7103;54.300;10.180;2023-05-07T08:56:43;13.70;1.00
14057;DHT22;7103;54.300;10.180;2023-05-07T08:59:10;13.80;1.00
14057;DHT22;7103;54.300;10.180;2023-05-07T09:01:37;13.60;1.00
14057;DHT22;7103;54.300;10.180;2023-05-07T09:04:05;13.50;1.00
14057;DHT22;7103;54.300;10.180;2023-05-07T09:06:34;13.10;1.00
14057;DHT22;7103;54.300;10.180;2023-05-07T09:09:01;13.20;1.00
14057;DHT22;7103;54.300;10.180;2023-05-07T09:11:32;13.30;1.00
14057;DHT22;7103;54.300;10.180;2023-05-07T09:13:58;13.50;1.00
14057;DHT22;7103;54.300;10.180;2023-05-07T09:16:30;13.70;1.00
14057;DHT22;7103;54.300;10.180;2023-05-07T09:18:59;13.70;1.00
14057;DHT22;7103;54.300;10.180;2023-05-07T09:21:27;13.70;1.00
14057;DHT22;7103;54.300;10.180;2023-05-07T09:23:55;13.90;1.00
14057;DHT22;7103;54.300;10.180;2023-05-07T09:26:23;13.70;1.00
14057;DHT22;7103;54.300;10.180;2023-05-07T09:28:51;13.60;1.00
14057;DHT22;7103;54.300;10.180;2023-05-07T09:31:18;13.60;1.00
14057;DHT22;7103;54.300;10.180;2023-05-07T09:33:47;13.50;1.00
14057;DHT22;7103;54.300;10.180;2023-05-07T09:36:15;13.50;1.00
14057;DHT22;7103;54.300;10.180;2023-05-07T09:38:42;13.50;1.00
14057;DHT22;7103;54.300;10.180;2023-05-07T09:41:11;13.70;1.00
14057;DHT22;7103;54.300;10.180;2023-05-07T09:43:40;13.90;1.00
14057;DHT22;7103;54.300;10.180;2023-05-07T09:46:14;14.10;1.00
14057;DHT22;7103;54.300;10.180;2023-05-07T09:48:43;14.20;1.00
14057;DHT22;7103;54.300;10.180;2023-05-07T09:53:48;14.70;1.00
14057;DHT22;7103;54.300;10.180;2023-05-07T09:56:17;14.70;1.00
14057;DHT22;7103;54.300;10.180;2023-05-07T09:58:45;14.30;1.00
14057;DHT22;7103;54.300;10.180;2023-05-07T10:01:13;14.30;1.00
14057;DHT22;7103;54.300;10.180;2023-05-07T10:03:41;14.40;1.00
14057;DHT22;7103;54.300;10.180;2023-05-07T10:06:10;14.40;1.00
14057;DHT22;7103;54.300;10.180;2023-05-07T10:08:39;14.90;1.00
14057;DHT22;7103;54.300;10.180;2023-05-07T10:11:06;15.10;1.00
14057;DHT22;7103;54.300;10.180;2023-05-07T10:13:33;15.10;1.00
14057;DHT22;7103;54.300;10.180;2023-05-07T10:16:04;15.30;1.00
14057;DHT22;7103;54.300;10.180;2023-05-07T10:18:33;15.30;1.00
14057;DHT22;7103;54.300;10.180;2023-05-07T10:21:21;15.30;1.00
14057;DHT22;7103;54.300;10.180;2023-05-07T10:23:54;15.00;1.00
14057;DHT22;7103;54.300;10.180;2023-05-07T10:26:25;15.10;1.00
14057;DHT22;7103;54.300;10.180;2023-05-07T10:29:02;15.40;1.00
14057;DHT22;7103;54.300;10.180;2023-05-07T10:34:20;16.50;1.00
14057;DHT22;7103;54.300;10.180;2023-05-07T10:36:48;16.80;1.00
14057;DHT22;7103;54.300;10.180;2023-05-07T10:39:17;16.50;1.00
14057;DHT22;7103;54.300;10.180;2023-05-07T10:41:46;16.60;1.00
14057;DHT22;7103;54.300;10.180;2023-05-07T10:44:25;17.10;1.00
14057;DHT22;7103;54.300;10.180;2023-05-07T10:47:10;17.00;1.00
14057;DHT22;7103;54.300;10.180;2023-05-07T10:52:22;16.90;1.00
14057;DHT22;7103;54.300;10.180;2023-05-07T10:57:44;17.20;1.00
14057;DHT22;7103;54.300;10.180;2023-05-07T11:03:04;16.90;1.00
14057;DHT22;7103;54.300;10.180;2023-05-07T11:05:34;16.90;1.00
14057;DHT22;7103;54.300;10.180;2023-05-07T11:08:04;17.10;1.00
14057;DHT22;7103;54.300;10.180;2023-05-07T11:10:54;17.60;1.00
14057;DHT22;7103;54.300;10.180;2023-05-07T11:13:41;18.30;1.00
14057;DHT22;7103;54.300;10.180;2023-05-07T11:16:21;18.60;1.00
14057;DHT22;7103;54.300;10.180;2023-05-07T11:18:51;17.90;1.00
14057;DHT22;7103;54.300;10.180;2023-05-07T11:21:35;17.70;1.00
14057;DHT22;7103;54.300;10.180;2023-05-07T11:24:03;18.00;1.00
14057;DHT22;7103;54.300;10.180;2023-05-07T11:26:41;17.90;1.00
14057;DHT22;7103;54.300;10.180;2023-05-07T11:29:16;18.00;1.00
14057;DHT22;7103;54.300;10.180;2023-05-07T11:31:52;18.10;99.90
14057;DHT22;7103;54.300;10.180;2023-05-07T11:34:23;18.00;99.90
14057;DHT22;7103;54.300;10.180;2023-05-07T11:36:51;17.80;99.90
14057;DHT22;7103;54.300;10.180;2023-05-07T11:39:30;17.80;99.90
14057;DHT22;7103;54.300;10.180;2023-05-07T11:41:59;17.40;99.90
14057;DHT22;7103;54.300;10.180;2023-05-07T11:44:41;17.50;99.90
14057;DHT22;7103;54.300;10.180;2023-05-07T11:47:08;17.80;99.90
14057;DHT22;7103;54.300;10.180;2023-05-07T11:49:34;18.10;99.90
14057;DHT22;7103;54.300;10.180;2023-05-07T11:52:02;18.30;99.90
14057;DHT22;7103;54.300;10.180;2023-05-07T11:54:36;18.00;99.90
14057;DHT22;7103;54.300;10.180;2023-05-07T11:57:03;17.70;99.90
14057;DHT22;7103;54.300;10.180;2023-05-07T11:59:38;17.90;99.90
14057;DHT22;7103;54.300;10.180;2023-05-07T12:02:07;17.80;99.90
14057;DHT22;7103;54.300;10.180;2023-05-07T12:04:34;17.60;99.90
14057;DHT22;7103;54.300;10.180;2023-05-07T12:07:02;17.60;99.90
14057;DHT22;7103;54.300;10.180;2023-05-07T12:09:28;17.40;99.90
14057;DHT22;7103;54.300;10.180;2023-05-07T12:11:56;17.60;99.90
14057;DHT22;7103;54.300;10.180;2023-05-07T12:14:27;17.80;99.90
14057;DHT22;7103;54.300;10.180;2023-05-07T12:16:55;18.50;99.90
14057;DHT22;7103;54.300;10.180;2023-05-07T12:19:23;18.90;99.90
14057;DHT22;7103;54.300;10.180;2023-05-07T12:21:50;19.00;99.90
14057;DHT22;7103;54.300;10.180;2023-05-07T12:24:17;19.30;99.90
14057;DHT22;7103;54.300;10.180;2023-05-07T12:26:48;19.00;99.90
14057;DHT22;7103;54.300;10.180;2023-05-07T12:29:15;18.90;99.90
14057;DHT22;7103;54.300;10.180;2023-05-07T12:31:42;18.90;99.90
14057;DHT22;7103;54.300;10.180;2023-05-07T12:34:13;18.40;99.90
14057;DHT22;7103;54.300;10.180;2023-05-07T12:36:40;18.20;99.90
14057;DHT22;7103;54.300;10.180;2023-05-07T12:39:08;17.80;99.90
14057;DHT22;7103;54.300;10.180;2023-05-07T12:41:55;17.90;99.90
14057;DHT22;7103;54.300;10.180;2023-05-07T12:44:23;18.10;99.90
14057;DHT22;7103;54.300;10.180;2023-05-07T12:46:51;18.30;99.90
14057;DHT22;7103;54.300;10.180;2023-05-07T12:49:18;18.60;99.90
14057;DHT22;7103;54.300;10.180;2023-05-07T12:51:49;19.10;99.90
14057;DHT22;7103;54.300;10.180;2023-05-07T12:54:37;19.10;99.90
14057;DHT22;7103;54.300;10.180;2023-05-07T12:57:06;18.60;99.90
14057;DHT22;7103;54.300;10.180;2023-05-07T12:59:38;18.40;99.90
14057;DHT22;7103;54.300;10.180;2023-05-07T13:02:05;18.40;99.90
14057;DHT22;7103;54.300;10.180;2023-05-07T13:04:33;18.60;99.90
14057;DHT22;7103;54.300;10.180;2023-05-07T13:07:00;18.40;99.90
14057;DHT22;7103;54.300;10.180;2023-05-07T13:09:28;18.50;99.90
14057;DHT22;7103;54.300;10.180;2023-05-07T13:11:58;18.50;99.90
14057;DHT22;7103;54.300;10.180;2023-05-07T13:14:28;18.20;99.90
14057;DHT22;7103;54.300;10.180;2023-05-07T13:16:55;18.20;99.90
14057;DHT22;7103;54.300;10.180;2023-05-07T13:19:22;18.40;99.90
14057;DHT22;7103;54.300;10.180;2023-05-07T13:21:49;18.20;99.90
14057;DHT22;7103;54.300;10.180;2023-05-07T13:24:16;18.30;99.90
14057;DHT22;7103;54.300;10.180;2023-05-07T13:26:43;18.00;99.90
14057;DHT22;7103;54.300;10.180;2023-05-07T13:29:11;18.10;99.90
14057;DHT22;7103;54.300;10.180;2023-05-07T13:31:38;18.20;99.90
14057;DHT22;7103;54.300;10.180;2023-05-07T13:34:10;18.20;99.90
14057;DHT22;7103;54.300;10.180;2023-05-07T13:36:37;18.30;99.90
14057;DHT22;7103;54.300;10.180;2023-05-07T13:39:06;18.20;99.90
14057;DHT22;7103;54.300;10.180;2023-05-07T13:41:33;18.30;99.90
14057;DHT22;7103;54.300;10.180;2023-05-07T13:44:00;18.20;99.90
14057;DHT22;7103;54.300;10.180;2023-05-07T13:46:27;18.00;99.90
14057;DHT22;7103;54.300;10.180;2023-05-07T13:48:54;18.20;99.90
14057;DHT22;7103;54.300;10.180;2023-05-07T13:51:21;18.40;99.90
14057;DHT22;7103;54.300;10.180;2023-05-07T13:53:48;18.20;99.90
14057;DHT22;7103;54.300;10.180;2023-05-07T13:56:15;18.20;99.90
14057;DHT22;7103;54.300;10.180;2023-05-07T13:58:42;18.10;99.90
14057;DHT22;7103;54.300;10.180;2023-05-07T14:01:24;18.30;99.90
14057;DHT22;7103;54.300;10.180;2023-05-07T14:03:51;18.00;99.90
14057;DHT22;7103;54.300;10.180;2023-05-07T14:06:18;18.20;99.90
14057;DHT22;7103;54.300;10.180;2023-05-07T14:08:46;18.70;99.90
14057;DHT22;7103;54.300;10.180;2023-05-07T14:11:13;18.50;99.90
14057;DHT22;7103;54.300;10.180;2023-05-07T14:13:40;18.50;99.90
14057;DHT22;7103;54.300;10.180;2023-05-07T14:16:07;18.40;99.90
14057;DHT22;7103;54.300;10.180;2023-05-07T14:18:34;18.50;99.90
14057;DHT22;7103;54.300;10.180;2023-05-07T14:21:02;18.50;99.90
14057;DHT22;7103;54.300;10.180;2023-05-07T14:23:29;18.50;99.90
14057;DHT22;7103;54.300;10.180;2023-05-07T14:25:56;18.40;99.90
14057;DHT22;7103;54.300;10.180;2023-05-07T14:28:24;18.50;99.90
14057;DHT22;7103;54.300;10.180;2023-05-07T14:30:51;18.30;99.90
14057;DHT22;7103;54.300;10.180;2023-05-07T14:33:17;18.20;99.90
14057;DHT22;7103;54.300;10.180;2023-05-07T14:35:44;18.20;99.90
14057;DHT22;7103;54.300;10.180;2023-05-07T14:38:15;18.40;99.90
14057;DHT22;7103;54.300;10.180;2023-05-07T14:40:42;18.60;99.90
14057;DHT22;7103;54.300;10.180;2023-05-07T14:43:09;18.50;99.90
14057;DHT22;7103;54.300;10.180;2023-05-07T14:45:36;18.20;99.90
14057;DHT22;7103;54.300;10.180;2023-05-07T14:48:03;18.00;99.90
14057;DHT22;7103;54.300;10.180;2023-05-07T14:50:31;17.90;99.90
14057;DHT22;7103;54.300;10.180;2023-05-07T14:52:57;17.80;99.90
14057;DHT22;7103;54.300;10.180;2023-05-07T14:55:24;17.90;99.90
14057;DHT22;7103;54.300;10.180;2023-05-07T14:57:51;17.90;99.90
14057;DHT22;7103;54.300;10.180;2023-05-07T15:00:19;17.90;99.90
14057;DHT22;7103;54.300;10.180;2023-05-07T15:02:45;17.70;99.90
14057;DHT22;7103;54.300;10.180;2023-05-07T15:05:13;17.70;99.90
14057;DHT22;7103;54.300;10.180;2023-05-07T15:07:41;17.70;99.90
14057;DHT22;7103;54.300;10.180;2023-05-07T15:10:08;17.70;99.90
14057;DHT22;7103;54.300;10.180;2023-05-07T15:12:35;18.00;99.90
14057;DHT22;7103;54.300;10.180;2023-05-07T15:15:03;18.00;99.90
14057;DHT22;7103;54.300;10.180;2023-05-07T15:17:30;18.10;99.90
14057;DHT22;7103;54.300;10.180;2023-05-07T15:19:57;18.10;99.90
14057;DHT22;7103;54.300;10.180;2023-05-07T15:22:24;18.30;99.90
14057;DHT22;7103;54.300;10.180;2023-05-07T15:24:51;18.20;99.90
14057;DHT22;7103;54.300;10.180;2023-05-07T15:27:18;18.30;99.90
14057;DHT22;7103;54.300;10.180;2023-05-07T15:29:45;18.20;99.90
14057;DHT22;7103;54.300;10.180;2023-05-07T15:32:12;18.10;99.90
14057;DHT22;7103;54.300;10.180;2023-05-07T15:34:40;18.10;99.90
14057;DHT22;7103;54.300;10.180;2023-05-07T15:37:07;18.10;99.90
14057;DHT22;7103;54.300;10.180;2023-05-07T15:39:34;18.20;99.90
14057;DHT22;7103;54.300;10.180;2023-05-07T15:42:01;18.20;99.90
14057;DHT22;7103;54.300;10.180;2023-05-07T15:44:29;18.20;99.90
14057;DHT22;7103;54.300;10.180;2023-05-07T15:47:01;18.10;99.90
14057;DHT22;7103;54.300;10.180;2023-05-07T15:49:28;18.00;99.90
14057;DHT22;7103;54.300;10.180;2023-05-07T15:51:55;17.60;99.90
14057;DHT22;7103;54.300;10.180;2023-05-07T15:54:23;17.40;99.90
14057;DHT22;7103;54.300;10.180;2023-05-07T15:56:50;17.40;99.90
14057;DHT22;7103;54.300;10.180;2023-05-07T15:59:17;17.60;99.90
14057;DHT22;7103;54.300;10.180;2023-05-07T16:01:44;17.70;99.90
14057;DHT22;7103;54.300;10.180;2023-05-07T16:04:11;17.80;99.90
14057;DHT22;7103;54.300;10.180;2023-05-07T16:06:38;17.80;99.90
14057;DHT22;7103;54.300;10.180;2023-05-07T16:09:05;17.80;99.90